createdAt,value
2018-09-10T00:01:15.048Z,101717.45
2018-09-10T00:03:45.647Z,101718.32
2018-09-10T00:06:16.000Z,101722.69
2018-09-10T00:08:51.344Z,101719.28
2018-09-10T00:11:22.398Z,101716.66
2018-09-10T00:13:53.500Z,101711.16
2018-09-10T00:16:24.806Z,101705.52
2018-09-10T00:18:56.668Z,101709.37
2018-09-10T00:21:29.413Z,101716.25
2018-09-10T00:23:59.945Z,101710.03
2018-09-10T00:26:31.194Z,101707.98
2018-09-10T00:29:03.281Z,101704.50
2018-09-10T00:31:37.097Z,101701.75
2018-09-10T00:34:07.873Z,101699.23
2018-09-10T00:36:39.591Z,101697.11
2018-09-10T00:39:18.994Z,101705.15
2018-09-10T00:41:50.464Z,101707.71
2018-09-10T00:44:22.244Z,101706.22
2018-09-10T00:46:52.538Z,101709.88
2018-09-10T00:49:23.359Z,101704.58
2018-09-10T00:51:54.930Z,101705.63
2018-09-10T00:54:26.176Z,101703.02
2018-09-10T00:56:57.578Z,101707.27
2018-09-10T00:59:28.261Z,101704.95
2018-09-10T01:01:59.503Z,101702.70
2018-09-10T01:04:31.506Z,101696.78
2018-09-10T01:07:04.097Z,101691.97
2018-09-10T01:09:34.848Z,101685.75
2018-09-10T01:12:06.114Z,101698.16
2018-09-10T01:14:36.745Z,101698.66
2018-09-10T01:17:07.646Z,101692.93
2018-09-10T01:19:38.525Z,101698.95
2018-09-10T01:22:10.261Z,101692.62
2018-09-10T01:24:44.598Z,101690.30
2018-09-10T01:27:18.662Z,101695.55
2018-09-10T01:29:51.688Z,101694.87
2018-09-10T01:32:24.225Z,101691.17
2018-09-10T01:35:00.904Z,101690.13
2018-09-10T01:37:32.883Z,101692.05
2018-09-10T01:40:05.637Z,101691.47
2018-09-10T01:42:36.174Z,101678.50
2018-09-10T01:45:07.920Z,101668.50
2018-09-10T01:47:41.167Z,101671.60
2018-09-10T01:50:11.831Z,101663.17
2018-09-10T01:52:42.842Z,101659.88
2018-09-10T01:55:14.268Z,101659.99
2018-09-10T01:57:46.113Z,101663.29
2018-09-10T02:00:17.337Z,101666.59
2018-09-10T02:02:48.116Z,101668.70
2018-09-10T02:05:18.342Z,101653.70
2018-09-10T02:07:49.940Z,101660.20
2018-09-10T02:10:19.946Z,101659.03
2018-09-10T02:12:50.792Z,101652.15
2018-09-10T02:15:23.285Z,101649.16
2018-09-10T02:17:55.127Z,101652.62
2018-09-10T02:20:25.376Z,101642.84
2018-09-10T02:22:55.881Z,101645.23
2018-09-10T02:25:27.034Z,101652.31
2018-09-10T02:27:57.883Z,101644.41
2018-09-10T02:30:28.839Z,101641.88
2018-09-10T02:33:00.604Z,101641.97
2018-09-10T02:35:32.875Z,101650.52
2018-09-10T02:38:05.866Z,101649.14
2018-09-10T02:40:36.999Z,101651.71
2018-09-10T02:43:07.954Z,101648.64
2018-09-10T02:45:40.490Z,101642.36
2018-09-10T02:48:11.406Z,101639.83
2018-09-10T02:50:41.447Z,101633.05
2018-09-10T02:53:11.192Z,101640.41
2018-09-10T02:55:44.077Z,101642.44
2018-09-10T02:58:14.713Z,101638.27
2018-09-10T03:00:46.203Z,101626.08
2018-09-10T03:03:17.705Z,101607.68
2018-09-10T03:05:49.617Z,101596.50
2018-09-10T03:08:20.238Z,101601.73
2018-09-10T03:10:50.626Z,101610.66
2018-09-10T03:13:22.016Z,101605.92
2018-09-10T03:15:52.891Z,101606.59
2018-09-10T03:18:23.320Z,101609.43
2018-09-10T03:20:54.874Z,101606.22
2018-09-10T03:23:25.142Z,101602.70
2018-09-10T03:25:55.501Z,101603.61
2018-09-10T03:28:27.150Z,101604.40
2018-09-10T03:30:57.296Z,101600.90
2018-09-10T03:33:27.780Z,101610.29
2018-09-10T03:35:58.770Z,101615.11
2018-09-10T03:38:29.083Z,101609.48
2018-09-10T03:40:59.970Z,101605.24
2018-09-10T03:43:32.702Z,101600.04
2018-09-10T03:46:03.119Z,101602.91
2018-09-10T03:48:33.271Z,101594.75
2018-09-10T03:51:03.320Z,101599.55
2018-09-10T03:53:33.792Z,101604.40
2018-09-10T03:56:03.962Z,101595.08
2018-09-10T03:58:36.494Z,101585.02
2018-09-10T04:01:08.377Z,101579.59
2018-09-10T04:03:40.258Z,101587.81
2018-09-10T04:06:10.397Z,101582.78
2018-09-10T04:08:40.428Z,101579.97
2018-09-10T04:11:10.816Z,101587.11
2018-09-10T04:13:41.601Z,101598.63
2018-09-10T04:16:13.570Z,101582.00
2018-09-10T04:18:44.222Z,101591.39
2018-09-10T04:21:16.581Z,101594.77
2018-09-10T04:23:47.046Z,101596.61
2018-09-10T04:26:17.433Z,101598.56
2018-09-10T04:28:49.625Z,101606.91
2018-09-10T04:31:20.020Z,101609.30
2018-09-10T04:33:50.449Z,101607.77
2018-09-10T04:36:20.875Z,101614.91
2018-09-10T04:38:51.258Z,101622.45
2018-09-10T04:41:22.873Z,101628.84
2018-09-10T04:43:54.551Z,101632.25
2018-09-10T04:46:25.881Z,101625.83
2018-09-10T04:48:57.327Z,101628.08
2018-09-10T04:51:27.873Z,101631.84
2018-09-10T04:53:59.793Z,101628.34
2018-09-10T04:56:30.345Z,101624.98
2018-09-10T04:59:01.840Z,101626.43
2018-09-10T05:01:32.429Z,101620.31
2018-09-10T05:04:03.279Z,101633.37
2018-09-10T05:06:33.722Z,101632.11
2018-09-10T05:09:06.621Z,101632.11
2018-09-10T05:11:39.265Z,101633.00
2018-09-10T05:14:09.803Z,101626.89
2018-09-10T05:16:41.633Z,101626.00
2018-09-10T05:19:12.603Z,101618.47
2018-09-10T05:21:43.330Z,101618.47
2018-09-10T05:24:17.110Z,101614.70
2018-09-10T05:26:50.074Z,101628.70
2018-09-10T05:29:24.333Z,101626.40
2018-09-10T05:31:55.241Z,101640.64
2018-09-10T05:34:27.621Z,101637.47
2018-09-10T05:37:00.199Z,101645.77
2018-09-10T05:39:33.423Z,101649.53
2018-09-10T05:42:07.397Z,101645.95
2018-09-10T05:44:40.395Z,101652.44
2018-09-10T05:47:13.002Z,101647.47
2018-09-10T05:49:46.394Z,101642.75
2018-09-10T05:52:26.046Z,101631.22
2018-09-10T05:54:58.754Z,101623.98
2018-09-10T05:57:31.050Z,101622.63
2018-09-10T06:00:02.910Z,101626.89
2018-09-10T06:02:35.825Z,101635.88
2018-09-10T06:05:11.122Z,101618.96
2018-09-10T06:11:01.699Z,101646.06
2018-09-10T06:13:37.116Z,101652.44
2018-09-10T06:16:08.222Z,101653.59
2018-09-10T06:18:44.661Z,101654.25
2018-09-10T06:21:20.592Z,101652.73
2018-09-10T06:23:53.360Z,101650.69
2018-09-10T06:26:26.339Z,101649.77
2018-09-10T06:32:08.669Z,101654.45
2018-09-10T06:34:43.035Z,101651.12
2018-09-10T06:37:17.969Z,101648.41
2018-09-10T06:39:51.931Z,101654.98
2018-09-10T06:42:29.317Z,101651.91
2018-09-10T06:48:14.005Z,101656.24
2018-09-10T06:50:51.767Z,101651.72
2018-09-10T06:56:28.452Z,101638.72
2018-09-10T06:59:17.763Z,101626.94
2018-09-10T07:01:49.234Z,101622.47
2018-09-10T07:04:23.226Z,101631.65
2018-09-10T07:06:58.268Z,101640.08
2018-09-10T07:09:34.941Z,101648.20
2018-09-10T07:12:15.055Z,101645.70
2018-09-10T07:29:22.316Z,101643.87
2018-09-10T07:32:00.590Z,101654.24
2018-09-10T07:34:34.969Z,101662.58
2018-09-10T07:37:09.915Z,101659.17
2018-09-10T07:39:44.456Z,101669.80
2018-09-10T07:42:17.158Z,101670.69
2018-09-10T07:44:51.993Z,101665.18
2018-09-10T07:47:28.521Z,101664.16
2018-09-10T07:50:04.170Z,101664.84
2018-09-10T07:52:47.216Z,101661.35
2018-09-10T07:55:18.253Z,101658.48
2018-09-10T08:11:32.696Z,101646.02
2018-09-10T08:14:08.770Z,101653.26
2018-09-10T08:19:36.601Z,101655.78
2018-09-10T08:25:15.743Z,101664.39
2018-09-10T08:27:57.985Z,101657.45
2018-09-10T08:30:29.934Z,101652.41
2018-09-10T08:33:07.622Z,101651.41
2018-09-10T08:35:52.046Z,101653.16
2018-09-10T08:38:33.375Z,101654.72
2018-09-10T08:41:08.397Z,101653.83
2018-09-10T08:43:45.336Z,101654.37
2018-09-10T08:59:42.272Z,101668.02
2018-09-10T09:02:15.657Z,101667.95
2018-09-10T09:04:48.859Z,101670.63
2018-09-10T09:07:31.471Z,101669.19
2018-09-10T09:10:07.128Z,101664.62
2018-09-10T09:12:40.267Z,101677.08
2018-09-10T09:15:23.499Z,101673.25
2018-09-10T09:17:56.349Z,101677.41
2018-09-10T09:20:49.136Z,101680.90
2018-09-10T09:23:45.722Z,101673.53
2018-09-10T09:26:30.905Z,101675.25
2018-09-10T09:29:03.206Z,101671.81
2018-09-10T09:31:35.029Z,101668.30
2018-09-10T09:34:08.217Z,101677.18
2018-09-10T09:36:45.376Z,101668.27
2018-09-10T09:39:20.743Z,101663.86
2018-09-10T09:41:57.774Z,101662.58
2018-09-10T09:44:36.387Z,101662.10
2018-09-10T09:47:11.325Z,101658.52
2018-09-10T09:49:44.775Z,101661.50
2018-09-10T09:52:18.585Z,101659.38
2018-09-10T09:54:51.358Z,101655.86
2018-09-10T09:57:22.638Z,101656.33
2018-09-10T10:00:00.655Z,101664.95
2018-09-10T10:02:39.769Z,101662.52
2018-09-10T10:05:11.430Z,101664.13
2018-09-10T10:07:42.543Z,101663.53
2018-09-10T10:10:14.071Z,101666.06
2018-09-10T10:12:45.446Z,101656.52
2018-09-10T10:15:16.718Z,101653.21
2018-09-10T10:17:47.710Z,101660.35
2018-09-10T10:20:18.110Z,101664.05
2018-09-10T10:36:10.416Z,101665.92
2018-09-10T10:38:40.620Z,101657.95
2018-09-10T10:41:10.741Z,101661.80
2018-09-10T10:43:40.867Z,101657.70
2018-09-10T10:46:11.194Z,101664.37
2018-09-10T10:48:41.297Z,101655.09
2018-09-10T10:51:11.365Z,101645.85
2018-09-10T10:53:43.333Z,101639.28
2018-09-10T10:56:15.957Z,101666.66
2018-09-10T10:58:50.156Z,101676.45
2018-09-10T11:01:29.267Z,101679.07
2018-09-10T11:04:05.780Z,101673.66
2018-09-10T11:07:35.482Z,101676.51
2018-09-10T11:10:07.772Z,101683.16
2018-09-10T11:12:39.311Z,101688.89
2018-09-10T11:15:12.372Z,101686.50
2018-09-10T11:17:42.805Z,101685.25
2018-09-10T11:20:13.556Z,101689.16
2018-09-10T11:22:43.736Z,101687.94
2018-09-10T11:25:14.682Z,101693.86
2018-09-10T11:27:44.980Z,101689.91
2018-09-10T11:30:15.989Z,101684.77
2018-09-10T11:32:54.425Z,101682.91
2018-09-10T11:35:25.021Z,101681.46
2018-09-10T11:37:55.246Z,101684.72
2018-09-10T11:40:25.705Z,101682.39
2018-09-10T11:42:56.512Z,101682.50
2018-09-10T11:45:27.437Z,101692.03
2018-09-10T11:47:58.557Z,101680.31
2018-09-10T11:50:28.940Z,101693.44
2018-09-10T11:52:59.843Z,101696.91
2018-09-10T11:55:31.156Z,101698.59
2018-09-10T11:58:01.089Z,101706.45
2018-09-10T12:00:31.595Z,101719.58
2018-09-10T12:03:01.957Z,101718.79
2018-09-10T12:05:34.671Z,101717.24
2018-09-10T12:08:05.073Z,101731.88
2018-09-10T12:10:35.374Z,101733.49
2018-09-10T12:13:06.854Z,101727.39
2018-09-10T12:15:38.109Z,101726.06
2018-09-10T12:18:09.533Z,101727.16
2018-09-10T12:20:40.579Z,101731.34
2018-09-10T12:23:12.229Z,101731.43
2018-09-10T12:25:48.188Z,101735.67
2018-09-10T12:28:25.289Z,101751.01
2018-09-10T12:33:54.239Z,101745.38
2018-09-10T12:36:28.610Z,101741.84
2018-09-10T12:39:00.595Z,101759.98
2018-09-10T12:41:33.555Z,101767.87
2018-09-10T12:44:10.732Z,101775.16
2018-09-10T12:49:24.984Z,101776.58
2018-09-10T12:52:08.643Z,101766.88
2018-09-10T12:54:47.996Z,101757.84
2018-09-10T12:59:57.958Z,101747.36
2018-09-10T13:02:30.943Z,101744.41
2018-09-10T13:05:03.319Z,101752.89
2018-09-10T13:07:34.245Z,101760.50
2018-09-10T13:10:08.504Z,101758.19
2018-09-10T13:12:44.517Z,101756.14
2018-09-10T13:15:19.346Z,101764.29
2018-09-10T13:17:50.339Z,101758.52
2018-09-10T13:20:22.215Z,101744.79
2018-09-10T13:22:55.642Z,101745.92
2018-09-10T13:25:28.018Z,101748.77
2018-09-10T13:28:00.581Z,101753.66
2018-09-10T13:30:49.572Z,101756.65
2018-09-10T13:33:27.037Z,101761.33
2018-09-10T13:36:01.722Z,101758.19
2018-09-10T13:38:33.714Z,101776.91
2018-09-10T13:41:04.844Z,101780.56
2018-09-10T13:43:39.982Z,101776.48
2018-09-10T13:46:10.270Z,101770.24
2018-09-10T13:48:45.445Z,101774.77
2018-09-10T13:51:19.232Z,101788.39
2018-09-10T13:53:53.343Z,101786.05
2018-09-10T13:56:26.218Z,101790.60
2018-09-10T13:58:57.966Z,101777.77
2018-09-10T14:01:31.408Z,101782.59
2018-09-10T14:04:04.399Z,101781.33
2018-09-10T14:06:35.857Z,101785.85
2018-09-10T14:09:09.001Z,101776.45
2018-09-10T14:11:41.510Z,101777.69
2018-09-10T14:14:13.684Z,101778.79
2018-09-10T14:16:44.546Z,101776.78
2018-09-10T14:19:16.965Z,101782.73
2018-09-10T14:21:47.390Z,101790.71
2018-09-10T14:24:18.106Z,101795.60
2018-09-10T14:26:56.781Z,101793.81
2018-09-10T14:29:32.729Z,101803.27
2018-09-10T14:32:06.639Z,101796.84
2018-09-10T14:34:37.452Z,101794.68
2018-09-10T14:37:15.650Z,101796.26
2018-09-10T14:39:47.421Z,101805.02
2018-09-10T14:42:17.570Z,101810.63
2018-09-10T14:44:49.182Z,101808.62
2018-09-10T14:50:28.474Z,101817.02
2018-09-10T14:53:01.552Z,101817.84
2018-09-10T14:55:43.460Z,101807.15
2018-09-10T14:58:33.881Z,101817.12
2018-09-10T15:01:06.803Z,101825.20
2018-09-10T15:22:40.415Z,101839.84
2018-09-10T15:25:17.877Z,101854.84
2018-09-10T15:27:52.569Z,101849.69
2018-09-10T15:30:34.985Z,101849.21
2018-09-10T15:35:58.971Z,101841.27
2018-09-10T15:38:42.241Z,101841.27
2018-09-10T15:41:19.848Z,101833.08
2018-09-10T15:43:58.894Z,101823.80
2018-09-10T15:49:15.315Z,101838.33
2018-09-10T15:51:49.139Z,101839.12
2018-09-10T15:54:19.817Z,101839.16
2018-09-10T16:02:09.749Z,101848.45
2018-09-10T16:04:44.064Z,101842.38
2018-09-10T16:07:15.233Z,101840.23
2018-09-10T16:09:45.789Z,101853.43
2018-09-10T16:12:26.080Z,101847.70
2018-09-10T16:14:57.391Z,101857.18
2018-09-10T16:20:19.140Z,101857.05
2018-09-10T16:25:28.636Z,101857.73
2018-09-10T16:28:05.697Z,101853.95
2018-09-10T16:30:47.533Z,101851.52
2018-09-10T16:33:25.825Z,101858.13
2018-09-10T16:35:57.895Z,101851.23
2018-09-10T16:38:29.313Z,101837.48
2018-09-10T16:41:11.266Z,101841.34
2018-09-10T16:43:44.218Z,101841.73
2018-09-10T16:46:24.561Z,101847.63
2018-09-10T16:48:56.733Z,101849.39
2018-09-10T16:51:28.397Z,101848.83
2018-09-10T16:54:00.995Z,101843.59
2018-09-10T16:56:31.706Z,101833.09
2018-09-10T16:59:04.671Z,101832.41
2018-09-10T17:01:36.763Z,101830.47
2018-09-10T17:04:11.917Z,101823.31
2018-09-10T17:06:51.539Z,101818.19
2018-09-10T17:09:40.609Z,101827.01
2018-09-10T17:12:27.752Z,101821.29
2018-09-10T17:15:00.004Z,101825.75
2018-09-10T17:17:36.466Z,101817.66
2018-09-10T17:20:15.496Z,101825.52
2018-09-10T17:35:11.615Z,101840.09
2018-09-10T17:37:48.176Z,101830.37
2018-09-10T17:40:43.322Z,101828.17
2018-09-10T17:43:28.066Z,101835.22
2018-09-10T17:46:24.924Z,101829.78
2018-09-10T17:48:59.347Z,101836.31
2018-09-10T17:51:35.029Z,101842.32
2018-09-10T17:54:15.716Z,101846.77
2018-09-10T17:59:37.130Z,101850.14
2018-09-10T18:02:14.669Z,101849.28
2018-09-10T18:05:07.362Z,101859.44
2018-09-10T18:07:50.131Z,101858.08
2018-09-10T18:10:32.609Z,101868.38
2018-09-10T18:15:47.503Z,101862.30
2018-09-10T18:18:31.761Z,101862.66
2018-09-10T18:24:03.442Z,101862.55
2018-09-10T18:26:38.430Z,101856.59
2018-09-10T18:29:14.673Z,101852.02
2018-09-10T18:31:50.640Z,101855.63
2018-09-10T18:34:38.975Z,101859.69
2018-09-10T18:37:24.968Z,101861.89
2018-09-10T18:46:24.847Z,101881.45
2018-09-10T18:49:06.896Z,101870.52
2018-09-10T18:54:50.315Z,101865.77
2018-09-10T19:00:13.186Z,101861.80
2018-09-10T19:02:46.646Z,101858.88
2018-09-10T19:05:27.112Z,101860.67
2018-09-10T19:08:12.166Z,101869.78
2018-09-10T19:11:03.494Z,101869.97
2018-09-10T19:13:42.819Z,101869.45
2018-09-10T19:16:13.943Z,101857.25
2018-09-10T19:18:45.677Z,101859.11
2018-09-10T19:24:57.622Z,101858.19
2018-09-10T19:30:40.920Z,101863.52
2018-09-10T19:33:33.982Z,101862.65
2018-09-10T19:36:05.815Z,101859.20
2018-09-10T19:44:17.832Z,101859.06
2018-09-10T19:46:54.346Z,101850.88
2018-09-10T19:49:31.947Z,101856.77
2018-09-10T19:52:15.775Z,101863.77
2018-09-10T19:55:00.934Z,101857.80
2018-09-10T19:57:32.369Z,101862.55
2018-09-10T20:00:03.128Z,101852.50
2018-09-10T20:02:41.326Z,101859.64
2018-09-10T20:05:15.221Z,101859.14
2018-09-10T20:11:08.906Z,101855.58
2018-09-10T20:13:49.671Z,101852.99
2018-09-10T20:16:29.566Z,101850.16
2018-09-10T20:31:59.868Z,101818.02
2018-09-10T20:34:46.243Z,101820.91
2018-09-10T20:37:32.125Z,101810.52
2018-09-10T20:40:29.390Z,101809.53
2018-09-10T20:45:50.008Z,101811.71
2018-09-10T20:48:30.065Z,101811.76
2018-09-10T20:54:00.213Z,101829.75
2018-09-10T20:56:37.001Z,101829.70
2018-09-10T20:59:14.058Z,101822.49
2018-09-10T21:01:58.216Z,101819.20
2018-09-10T21:04:52.496Z,101803.91
2018-09-10T21:10:29.974Z,101813.88
2018-09-10T21:13:04.799Z,101813.97
2018-09-10T21:16:01.249Z,101812.48
2018-09-10T21:18:39.137Z,101814.86
2018-09-10T21:21:24.124Z,101818.05
2018-09-10T21:24:02.006Z,101823.30
2018-09-10T21:26:33.654Z,101828.48
2018-09-10T21:31:57.445Z,101833.94
2018-09-10T21:34:46.272Z,101829.80
2018-09-10T21:40:33.666Z,101831.87
2018-09-10T21:43:10.419Z,101826.55
2018-09-10T21:45:43.855Z,101817.84
2018-09-10T21:48:20.182Z,101824.16
2018-09-10T21:50:51.644Z,101811.66
2018-09-10T21:53:25.390Z,101814.00
2018-09-10T21:56:09.208Z,101808.09
2018-09-10T21:58:49.750Z,101820.59
2018-09-10T22:01:51.168Z,101818.20
2018-09-10T22:04:35.728Z,101817.08
2018-09-10T22:07:16.940Z,101812.07
2018-09-10T22:10:12.008Z,101809.14
2018-09-10T22:16:11.166Z,101805.12
2018-09-10T22:18:42.699Z,101808.47
2018-09-10T22:21:18.323Z,101808.70
2018-09-10T22:23:49.651Z,101808.06
2018-09-10T22:26:33.278Z,101808.70
2018-09-10T22:29:18.638Z,101809.19
2018-09-10T22:38:13.367Z,101796.37
2018-09-10T22:40:54.846Z,101793.77
2018-09-10T22:43:25.250Z,101784.39
2018-09-10T22:46:01.412Z,101795.47
2018-09-10T23:00:32.546Z,101796.38
2018-09-10T23:03:05.418Z,101790.34
2018-09-10T23:05:37.013Z,101783.58
2018-09-10T23:08:12.043Z,101784.53
2018-09-10T23:13:53.854Z,101779.52
2018-09-10T23:16:26.332Z,101777.77
2018-09-10T23:18:58.165Z,101779.30
2018-09-10T23:21:33.751Z,101771.45
2018-09-10T23:24:04.039Z,101773.34
2018-09-10T23:26:43.163Z,101775.95
2018-09-10T23:29:31.209Z,101776.36
2018-09-10T23:32:06.066Z,101777.13
2018-09-10T23:34:41.201Z,101770.45
2018-09-10T23:37:33.338Z,101760.17
2018-09-10T23:40:19.090Z,101761.17
2018-09-10T23:42:52.060Z,101756.39
2018-09-10T23:45:24.785Z,101751.56
2018-09-10T23:47:59.058Z,101745.56
2018-09-10T23:50:30.820Z,101748.41
2018-09-10T23:53:03.491Z,101748.03
2018-09-10T23:55:37.937Z,101740.00
2018-09-10T23:58:09.370Z,101744.67
